createdAt,value
2018-01-23T00:01:59.112Z,94872.37
2018-01-23T00:04:27.483Z,94878.48
2018-01-23T00:06:55.867Z,94890.94
2018-01-23T00:09:24.258Z,94896.55
2018-01-23T00:11:52.670Z,94900.29
2018-01-23T00:14:21.029Z,94908.84
2018-01-23T00:16:49.384Z,94910.90
2018-01-23T00:19:17.739Z,94908.89
2018-01-23T00:21:46.085Z,94914.34
2018-01-23T00:24:14.466Z,94920.75
2018-01-23T00:26:42.821Z,94927.31
2018-01-23T00:29:11.244Z,94934.11
2018-01-23T00:31:39.605Z,94929.72
2018-01-23T00:34:07.993Z,94935.80
2018-01-23T00:36:36.346Z,94932.36
2018-01-23T00:39:04.751Z,94933.39
2018-01-23T00:41:33.096Z,94934.94
2018-01-23T00:44:01.463Z,94938.60
2018-01-23T00:46:29.924Z,94937.17
2018-01-23T00:48:58.310Z,94939.48
2018-01-23T00:51:26.665Z,94943.36
2018-01-23T00:53:55.029Z,94942.80
2018-01-23T00:56:23.374Z,94949.27
2018-01-23T00:58:51.786Z,94960.02
2018-01-23T01:01:20.181Z,94960.34
2018-01-23T01:03:48.545Z,94965.47
2018-01-23T01:06:16.893Z,94969.73
2018-01-23T01:08:45.241Z,94968.23
2018-01-23T01:11:13.622Z,94992.42
2018-01-23T01:13:41.969Z,94981.08
2018-01-23T01:16:10.313Z,94989.08
2018-01-23T01:18:38.674Z,94987.65
2018-01-23T01:21:07.038Z,94986.78
2018-01-23T01:23:35.421Z,94989.36
2018-01-23T01:26:03.968Z,94988.81
2018-01-23T01:28:32.360Z,94990.35
2018-01-23T01:31:00.711Z,95008.02
2018-01-23T01:33:29.065Z,95000.66
2018-01-23T01:35:57.410Z,95014.98
2018-01-23T01:38:25.769Z,95003.20
2018-01-23T01:40:54.141Z,95006.94
2018-01-23T01:43:22.501Z,95013.66
2018-01-23T01:45:50.850Z,95024.74
2018-01-23T01:48:19.212Z,95022.19
2018-01-23T01:50:47.586Z,95028.73
2018-01-23T01:53:15.995Z,95026.78
2018-01-23T01:55:44.379Z,95030.52
2018-01-23T01:58:12.786Z,95042.29
2018-01-23T02:00:41.168Z,95041.91
2018-01-23T02:03:09.520Z,95035.84
2018-01-23T02:05:37.919Z,95049.88
2018-01-23T02:08:06.287Z,95046.27
2018-01-23T02:10:34.679Z,95048.20
2018-01-23T02:13:03.037Z,95041.29
2018-01-23T02:15:31.459Z,95050.09
2018-01-23T02:18:00.121Z,95037.98
2018-01-23T02:20:28.496Z,95044.17
2018-01-23T02:22:56.850Z,95045.11
2018-01-23T02:25:25.227Z,95050.25
2018-01-23T02:27:53.600Z,95045.47
2018-01-23T02:30:21.962Z,95051.98
2018-01-23T02:32:50.323Z,95058.63
2018-01-23T02:35:18.687Z,95062.38
2018-01-23T02:37:47.042Z,95066.02
2018-01-23T02:40:15.571Z,95066.00
2018-01-23T02:42:43.935Z,95073.58
2018-01-23T02:45:12.303Z,95078.69
2018-01-23T02:47:40.668Z,95077.62
2018-01-23T02:50:09.028Z,95077.33
2018-01-23T02:52:37.415Z,95083.52
2018-01-23T02:55:05.775Z,95083.77
2018-01-23T02:57:34.173Z,95077.83
2018-01-23T03:00:02.528Z,95083.14
2018-01-23T03:02:30.903Z,95076.31
2018-01-23T03:04:59.282Z,95087.55
2018-01-23T03:07:27.710Z,95085.05
2018-01-23T03:09:56.086Z,95090.73
2018-01-23T03:12:24.435Z,95096.73
2018-01-23T03:14:52.798Z,95090.88
2018-01-23T03:17:21.184Z,95100.63
2018-01-23T03:19:49.547Z,95106.70
2018-01-23T03:22:17.911Z,95122.42
2018-01-23T03:24:46.275Z,95113.09
2018-01-23T03:27:14.631Z,95120.54
2018-01-23T03:29:43.026Z,95120.38
2018-01-23T03:32:11.390Z,95126.16
2018-01-23T03:34:39.759Z,95138.36
2018-01-23T03:37:08.131Z,95132.06
2018-01-23T03:39:36.489Z,95138.27
2018-01-23T03:42:04.869Z,95137.89
2018-01-23T03:44:33.243Z,95148.70
2018-01-23T03:47:01.611Z,95153.55
2018-01-23T03:49:29.970Z,95159.94
2018-01-23T03:51:58.329Z,95156.91
2018-01-23T03:54:26.708Z,95154.16
2018-01-23T03:56:55.075Z,95158.95
2018-01-23T03:59:23.430Z,95157.03
2018-01-23T04:01:51.825Z,95156.13
2018-01-23T04:04:20.183Z,95163.68
2018-01-23T04:06:48.605Z,95166.70
2018-01-23T04:09:16.976Z,95167.10
2018-01-23T04:11:45.329Z,95163.67
2018-01-23T04:14:13.698Z,95165.42
2018-01-23T04:16:42.054Z,95173.36
2018-01-23T04:19:10.468Z,95169.64
2018-01-23T04:21:38.842Z,95169.87
2018-01-23T04:24:07.280Z,95177.85
2018-01-23T04:26:35.644Z,95183.72
2018-01-23T04:29:04.010Z,95190.14
2018-01-23T04:31:32.488Z,95181.23
2018-01-23T04:34:00.850Z,95184.51
2018-01-23T04:36:29.232Z,95189.73
2018-01-23T04:38:57.596Z,95193.45
2018-01-23T04:41:25.959Z,95199.34
2018-01-23T04:43:54.335Z,95199.27
2018-01-23T04:46:22.737Z,95202.36
2018-01-23T04:48:51.113Z,95204.84
2018-01-23T04:51:19.491Z,95208.82
2018-01-23T04:53:47.852Z,95201.89
2018-01-23T04:56:16.247Z,95206.98
2018-01-23T04:58:44.609Z,95211.72
2018-01-23T05:01:12.962Z,95210.51
2018-01-23T05:03:41.365Z,95217.30
2018-01-23T05:06:09.719Z,95227.70
2018-01-23T05:08:38.137Z,95227.45
2018-01-23T05:11:06.516Z,95232.27
2018-01-23T05:13:34.903Z,95234.23
2018-01-23T05:16:03.284Z,95240.02
2018-01-23T05:18:31.655Z,95241.25
2018-01-23T05:21:00.068Z,95245.04
2018-01-23T05:23:28.417Z,95241.33
2018-01-23T05:25:56.797Z,95240.74
2018-01-23T05:28:25.218Z,95250.95
2018-01-23T05:30:53.582Z,95257.92
2018-01-23T05:33:21.955Z,95258.73
2018-01-23T05:35:51.799Z,95249.80
2018-01-23T05:38:20.296Z,95252.55
2018-01-23T05:40:48.657Z,95260.31
2018-01-23T05:43:18.372Z,95265.43
2018-01-23T05:45:46.747Z,95263.55
2018-01-23T05:48:15.095Z,95259.77
2018-01-23T05:50:44.269Z,95267.30
2018-01-23T05:53:13.011Z,95269.61
2018-01-23T05:55:41.383Z,95275.69
2018-01-23T05:58:09.750Z,95278.84
2018-01-23T06:00:38.227Z,95286.80
2018-01-23T06:03:06.622Z,95282.72
2018-01-23T06:05:35.032Z,95284.33
2018-01-23T06:08:03.383Z,95290.20
2018-01-23T06:10:31.779Z,95294.75
2018-01-23T06:13:00.171Z,95292.19
2018-01-23T06:15:28.542Z,95289.49
2018-01-23T06:17:56.914Z,95298.70
2018-01-23T06:20:25.278Z,95295.22
2018-01-23T06:22:53.659Z,95296.69
2018-01-23T06:25:22.150Z,95300.25
2018-01-23T06:27:50.504Z,95300.30
2018-01-23T06:30:18.906Z,95300.30
2018-01-23T06:32:47.400Z,95311.34
2018-01-23T06:35:15.762Z,95308.80
2018-01-23T06:37:44.145Z,95318.48
2018-01-23T06:40:12.559Z,95327.90
2018-01-23T06:42:40.895Z,95334.19
2018-01-23T06:45:09.274Z,95338.48
2018-01-23T06:47:37.673Z,95340.08
2018-01-23T06:50:06.058Z,95342.33
2018-01-23T06:52:34.999Z,95336.59
2018-01-23T06:55:03.363Z,95333.92
2018-01-23T06:57:31.727Z,95338.09
2018-01-23T07:00:00.106Z,95338.82
2018-01-23T07:02:28.491Z,95339.66
2018-01-23T07:04:56.851Z,95342.47
2018-01-23T07:07:25.303Z,95346.48
2018-01-23T07:09:53.670Z,95352.86
2018-01-23T07:12:22.022Z,95349.88
2018-01-23T07:14:50.410Z,95363.23
2018-01-23T07:17:18.806Z,95366.70
2018-01-23T07:19:50.332Z,95367.13
2018-01-23T07:22:18.686Z,95370.66
2018-01-23T07:24:47.047Z,95366.05
2018-01-23T07:27:15.423Z,95375.23
2018-01-23T07:29:43.943Z,95377.30
2018-01-23T07:32:12.381Z,95376.00
2018-01-23T07:34:40.767Z,95372.77
2018-01-23T07:37:09.255Z,95374.63
2018-01-23T07:39:37.621Z,95373.45
2018-01-23T07:42:06.036Z,95380.33
2018-01-23T07:44:34.405Z,95379.06
2018-01-23T07:47:02.778Z,95380.45
2018-01-23T07:49:31.161Z,95378.08
2018-01-23T07:51:59.594Z,95391.23
2018-01-23T07:54:27.978Z,95384.41
2018-01-23T07:56:56.446Z,95385.80
2018-01-23T07:59:24.874Z,95390.83
2018-01-23T08:01:53.260Z,95394.33
2018-01-23T08:04:21.662Z,95398.79
2018-01-23T08:06:50.006Z,95405.88
2018-01-23T08:09:18.370Z,95407.80
2018-01-23T08:11:46.761Z,95406.88
2018-01-23T08:14:15.127Z,95417.61
2018-01-23T08:16:43.560Z,95415.73
2018-01-23T08:19:11.932Z,95411.86
2018-01-23T08:21:40.295Z,95409.19
2018-01-23T08:24:08.686Z,95405.08
2018-01-23T08:26:37.031Z,95406.96
2018-01-23T08:29:05.524Z,95409.98
2018-01-23T08:31:33.886Z,95414.09
2018-01-23T08:34:02.262Z,95421.02
2018-01-23T08:36:30.617Z,95421.89
2018-01-23T08:38:58.970Z,95426.70
2018-01-23T08:41:27.322Z,95424.05
2018-01-23T08:43:55.714Z,95420.56
2018-01-23T08:46:24.070Z,95422.80
2018-01-23T08:48:52.461Z,95419.59
2018-01-23T08:51:20.824Z,95418.88
2018-01-23T08:53:49.167Z,95424.61
2018-01-23T08:56:17.566Z,95420.58
2018-01-23T08:58:45.907Z,95422.09
2018-01-23T09:01:14.268Z,95433.81
2018-01-23T09:03:42.610Z,95442.56
2018-01-23T09:06:10.956Z,95439.03
2018-01-23T09:08:39.293Z,95441.52
2018-01-23T09:11:07.635Z,95437.92
2018-01-23T09:13:35.988Z,95449.58
2018-01-23T09:16:04.335Z,95434.83
2018-01-23T09:18:32.734Z,95447.48
2018-01-23T09:21:01.098Z,95445.63
2018-01-23T09:23:29.577Z,95451.42
2018-01-23T09:25:57.932Z,95451.79
2018-01-23T09:28:26.287Z,95462.89
2018-01-23T09:30:54.620Z,95463.78
2018-01-23T09:33:22.978Z,95466.70
2018-01-23T09:35:51.360Z,95471.32
2018-01-23T09:38:19.711Z,95464.78
2018-01-23T09:40:48.094Z,95467.36
2018-01-23T09:43:16.460Z,95479.62
2018-01-23T09:45:44.821Z,95474.98
2018-01-23T09:48:13.176Z,95484.88
2018-01-23T09:50:41.558Z,95481.13
2018-01-23T09:53:09.916Z,95490.17
2018-01-23T09:55:38.271Z,95486.46
2018-01-23T09:58:06.632Z,95494.77
2018-01-23T10:00:34.999Z,95484.88
2018-01-23T10:03:03.342Z,95483.30
2018-01-23T10:05:31.707Z,95485.45
2018-01-23T10:08:00.066Z,95485.22
2018-01-23T10:10:28.450Z,95491.55
2018-01-23T10:12:56.798Z,95491.06
2018-01-23T10:15:25.161Z,95483.66
2018-01-23T10:17:53.518Z,95479.33
2018-01-23T10:20:21.877Z,95482.00
2018-01-23T10:22:50.231Z,95484.77
2018-01-23T10:25:18.600Z,95477.52
2018-01-23T10:27:46.979Z,95477.52
2018-01-23T10:30:15.336Z,95477.75
2018-01-23T10:32:43.708Z,95472.58
2018-01-23T10:35:12.055Z,95481.31
2018-01-23T10:37:40.406Z,95475.42
2018-01-23T10:40:08.758Z,95469.09
2018-01-23T10:42:37.117Z,95477.04
2018-01-23T10:45:05.503Z,95469.05
2018-01-23T10:47:33.863Z,95468.11
2018-01-23T10:50:02.548Z,95464.70
2018-01-23T10:52:30.922Z,95464.27
2018-01-23T10:54:59.283Z,95466.02
2018-01-23T10:57:27.643Z,95468.05
2018-01-23T10:59:56.044Z,95462.68
2018-01-23T11:02:24.405Z,95466.22
2018-01-23T11:04:52.751Z,95466.69
2018-01-23T11:07:21.099Z,95463.08
2018-01-23T11:09:49.447Z,95463.53
2018-01-23T11:12:18.746Z,95458.47
2018-01-23T11:14:47.100Z,95457.82
2018-01-23T11:17:15.474Z,95456.73
2018-01-23T11:19:43.888Z,95459.55
2018-01-23T11:22:12.231Z,95453.77
2018-01-23T11:24:40.587Z,95445.20
2018-01-23T11:27:08.934Z,95451.95
2018-01-23T11:29:37.278Z,95453.64
2018-01-23T11:32:05.622Z,95455.73
2018-01-23T11:34:33.987Z,95453.09
2018-01-23T11:37:02.346Z,95455.73
2018-01-23T11:39:30.695Z,95455.55
2018-01-23T11:41:59.046Z,95459.14
2018-01-23T11:44:27.398Z,95461.11
2018-01-23T11:46:56.619Z,95443.70
2018-01-23T11:49:24.987Z,95435.32
2018-01-23T11:51:53.338Z,95441.04
2018-01-23T11:54:21.704Z,95436.65
2018-01-23T11:56:50.056Z,95440.69
2018-01-23T11:59:18.407Z,95433.13
2018-01-23T12:01:46.760Z,95433.38
2018-01-23T12:04:15.108Z,95427.69
2018-01-23T12:06:43.455Z,95428.30
2018-01-23T12:09:11.838Z,95433.27
2018-01-23T12:11:40.211Z,95432.05
2018-01-23T12:14:08.559Z,95427.23
2018-01-23T12:16:36.903Z,95430.21
2018-01-23T12:19:05.340Z,95421.81
2018-01-23T12:21:33.674Z,95416.53
2018-01-23T12:24:02.059Z,95421.00
2018-01-23T12:26:30.416Z,95410.61
2018-01-23T12:28:58.763Z,95412.49
2018-01-23T12:31:27.103Z,95411.84
2018-01-23T12:33:55.464Z,95405.51
2018-01-23T12:36:23.822Z,95398.07
2018-01-23T12:38:52.166Z,95403.60
2018-01-23T12:41:20.555Z,95398.64
2018-01-23T12:43:48.886Z,95404.59
2018-01-23T12:46:17.238Z,95396.89
2018-01-23T12:48:45.630Z,95391.17
2018-01-23T12:51:13.986Z,95390.94
2018-01-23T12:53:42.345Z,95388.91
2018-01-23T12:56:10.702Z,95391.14
2018-01-23T12:58:39.055Z,95386.54
2018-01-23T13:01:07.414Z,95386.22
2018-01-23T13:03:35.755Z,95390.05
2018-01-23T13:06:04.115Z,95389.27
2018-01-23T13:08:32.472Z,95377.86
2018-01-23T13:11:00.828Z,95374.72
2018-01-23T13:13:29.168Z,95377.95
2018-01-23T13:15:57.517Z,95377.90
2018-01-23T13:18:25.922Z,95375.59
2018-01-23T13:20:54.290Z,95369.19
2018-01-23T13:23:22.682Z,95368.75
2018-01-23T13:25:51.040Z,95359.91
2018-01-23T13:28:19.424Z,95355.34
2018-01-23T13:30:47.776Z,95358.08
2018-01-23T13:33:16.112Z,95349.05
2018-01-23T13:35:44.464Z,95344.02
2018-01-23T13:38:12.808Z,95347.46
2018-01-23T13:40:41.189Z,95355.58
2018-01-23T13:43:09.576Z,95358.34
2018-01-23T13:45:37.916Z,95354.59
2018-01-23T13:48:06.251Z,95362.08
2018-01-23T13:50:34.592Z,95366.15
2018-01-23T13:53:02.943Z,95367.07
2018-01-23T13:55:31.277Z,95370.53
2018-01-23T13:57:59.651Z,95365.36
2018-01-23T14:00:27.998Z,95370.20
2018-01-23T14:02:56.374Z,95370.37
2018-01-23T14:05:24.712Z,95364.58
2018-01-23T14:07:53.074Z,95365.41
2018-01-23T14:10:21.417Z,95360.30
2018-01-23T14:12:49.758Z,95351.41
2018-01-23T14:15:18.153Z,95358.77
2018-01-23T14:17:46.512Z,95350.75
2018-01-23T14:20:14.866Z,95349.70
2018-01-23T14:22:43.220Z,95351.09
2018-01-23T14:25:11.560Z,95346.80
2018-01-23T14:27:39.912Z,95349.81
2018-01-23T14:30:08.248Z,95347.31
2018-01-23T14:32:36.598Z,95344.11
2018-01-23T14:35:04.944Z,95340.32
2018-01-23T14:37:33.296Z,95336.55
2018-01-23T14:40:01.642Z,95326.00
2018-01-23T14:42:29.993Z,95326.39
2018-01-23T14:44:58.335Z,95324.69
2018-01-23T14:47:26.670Z,95318.92
2018-01-23T14:49:55.021Z,95323.59
2018-01-23T14:52:23.367Z,95320.75
2018-01-23T14:54:51.709Z,95331.48
2018-01-23T14:57:20.055Z,95326.42
2018-01-23T14:59:48.403Z,95322.25
2018-01-23T15:02:16.735Z,95309.95
2018-01-23T15:04:45.084Z,95305.50
2018-01-23T15:07:13.456Z,95314.84
2018-01-23T15:09:41.794Z,95296.06
2018-01-23T15:12:10.143Z,95292.00
2018-01-23T15:14:38.498Z,95288.20
2018-01-23T15:17:06.834Z,95284.13
2018-01-23T15:19:35.168Z,95279.02
2018-01-23T15:22:03.546Z,95283.09
2018-01-23T15:24:31.903Z,95285.66
2018-01-23T15:27:00.242Z,95276.83
2018-01-23T15:29:28.604Z,95278.02
2018-01-23T15:31:56.940Z,95273.82
2018-01-23T15:34:25.275Z,95288.21
2018-01-23T15:36:53.625Z,95287.53
2018-01-23T15:39:22.332Z,95285.78
2018-01-23T15:41:50.667Z,95298.81
2018-01-23T15:44:19.097Z,95292.36
2018-01-23T15:46:47.527Z,95294.52
2018-01-23T15:49:15.884Z,95293.59
2018-01-23T15:51:44.230Z,95295.91
2018-01-23T15:54:12.586Z,95279.47
2018-01-23T15:56:40.930Z,95277.47
2018-01-23T15:59:09.277Z,95277.45
2018-01-23T16:01:37.630Z,95273.02
2018-01-23T16:04:05.986Z,95259.21
2018-01-23T16:06:34.339Z,95263.36
2018-01-23T16:09:02.714Z,95274.52
2018-01-23T16:11:31.226Z,95283.03
2018-01-23T16:13:59.587Z,95276.27
2018-01-23T16:16:28.132Z,95281.30
2018-01-23T16:18:56.476Z,95278.16
2018-01-23T16:21:24.833Z,95279.25
2018-01-23T16:23:53.204Z,95282.44
2018-01-23T16:26:21.582Z,95271.48
2018-01-23T16:28:51.557Z,95270.89
2018-01-23T16:31:20.189Z,95268.02
2018-01-23T16:33:48.542Z,95259.03
2018-01-23T16:36:16.886Z,95258.59
2018-01-23T16:38:45.225Z,95271.47
2018-01-23T16:41:15.301Z,95271.08
2018-01-23T16:43:48.054Z,95275.45
2018-01-23T16:46:17.424Z,95269.40
2018-01-23T16:48:46.068Z,95279.75
2018-01-23T16:51:15.711Z,95281.09
2018-01-23T16:53:45.111Z,95266.70
2018-01-23T16:56:13.474Z,95273.73
2018-01-23T16:58:41.842Z,95275.22
2018-01-23T17:01:10.178Z,95271.44
2018-01-23T17:03:38.526Z,95263.73
2018-01-23T17:06:06.870Z,95260.16
2018-01-23T17:08:35.210Z,95264.30
2018-01-23T17:11:03.549Z,95273.12
2018-01-23T17:13:31.922Z,95275.28
2018-01-23T17:16:00.272Z,95283.97
2018-01-23T17:18:28.608Z,95273.61
2018-01-23T17:20:56.963Z,95269.40
2018-01-23T17:23:25.298Z,95266.72
2018-01-23T17:25:53.638Z,95278.41
2018-01-23T17:28:22.021Z,95275.66
2018-01-23T17:30:50.365Z,95270.34
2018-01-23T17:33:18.698Z,95263.06
2018-01-23T17:35:47.040Z,95259.77
2018-01-23T17:38:15.382Z,95259.02
2018-01-23T17:43:50.015Z,95242.31
2018-01-23T17:46:22.071Z,95240.33
2018-01-23T17:48:50.732Z,95246.23
2018-01-23T17:51:19.085Z,95246.41
2018-01-23T17:53:47.460Z,95242.84
2018-01-23T17:56:15.802Z,95251.66
2018-01-23T17:58:44.190Z,95250.31
2018-01-23T18:01:12.529Z,95252.02
2018-01-23T18:03:40.895Z,95243.00
2018-01-23T18:06:09.363Z,95247.70
2018-01-23T18:08:37.715Z,95241.51
2018-01-23T18:11:06.060Z,95240.06
2018-01-23T18:13:34.411Z,95239.08
2018-01-23T18:16:02.795Z,95255.29
2018-01-23T18:18:31.142Z,95240.97
2018-01-23T18:20:59.487Z,95242.20
2018-01-23T18:23:27.867Z,95244.66
2018-01-23T18:25:56.230Z,95237.03
2018-01-23T18:28:24.616Z,95233.73
2018-01-23T18:30:52.952Z,95241.75
2018-01-23T18:33:21.300Z,95231.52
2018-01-23T18:35:49.654Z,95226.34
2018-01-23T18:38:18.020Z,95230.42
2018-01-23T18:40:46.356Z,95231.66
2018-01-23T18:43:14.734Z,95230.14
2018-01-23T18:45:43.084Z,95224.28
2018-01-23T18:48:11.526Z,95217.00
2018-01-23T18:50:40.282Z,95219.22
2018-01-23T18:53:08.737Z,95221.30
2018-01-23T18:55:37.112Z,95215.33
2018-01-23T18:58:05.564Z,95209.61
2018-01-23T19:00:34.098Z,95212.88
2018-01-23T19:03:02.442Z,95207.75
2018-01-23T19:05:30.818Z,95200.91
2018-01-23T19:07:59.150Z,95202.14
2018-01-23T19:10:27.517Z,95190.30
2018-01-23T19:12:55.862Z,95191.70
2018-01-23T19:15:24.664Z,95193.88
2018-01-23T19:17:54.273Z,95201.05
2018-01-23T19:20:22.605Z,95213.80
2018-01-23T19:22:51.125Z,95221.05
2018-01-23T19:25:19.497Z,95225.23
2018-01-23T19:27:47.831Z,95225.98
2018-01-23T19:30:16.182Z,95225.42
2018-01-23T19:32:44.545Z,95229.31
2018-01-23T19:35:12.987Z,95223.94
2018-01-23T19:37:41.328Z,95220.11
2018-01-23T19:40:09.713Z,95219.19
2018-01-23T19:45:12.711Z,95213.58
2018-01-23T19:47:41.061Z,95213.87
2018-01-23T19:50:09.407Z,95221.23
2018-01-23T19:52:38.089Z,95226.02
2018-01-23T19:55:07.594Z,95230.69
2018-01-23T19:57:35.947Z,95239.83
2018-01-23T20:00:04.293Z,95234.05
2018-01-23T20:02:32.636Z,95238.73
2018-01-23T20:05:00.975Z,95226.59
2018-01-23T20:07:29.346Z,95227.64
2018-01-23T20:09:57.700Z,95218.70
2018-01-23T20:12:26.031Z,95218.53
2018-01-23T20:14:54.438Z,95217.39
2018-01-23T20:17:22.790Z,95204.77
2018-01-23T20:19:51.154Z,95199.84
2018-01-23T20:22:19.502Z,95186.92
2018-01-23T20:24:47.859Z,95195.14
2018-01-23T20:27:16.219Z,95207.27
2018-01-23T20:29:44.779Z,95199.19
2018-01-23T20:32:13.124Z,95204.77
2018-01-23T20:34:41.465Z,95209.36
2018-01-23T20:37:09.803Z,95219.31
2018-01-23T20:39:38.190Z,95225.70
2018-01-23T20:42:06.540Z,95222.04
2018-01-23T20:44:34.880Z,95218.72
2018-01-23T20:47:03.220Z,95209.11
2018-01-23T20:49:31.570Z,95226.33
2018-01-23T20:51:59.918Z,95226.06
2018-01-23T20:54:28.357Z,95229.45
2018-01-23T20:56:56.731Z,95221.69
2018-01-23T20:59:25.076Z,95220.25
2018-01-23T21:01:53.424Z,95217.00
2018-01-23T21:04:21.805Z,95199.84
2018-01-23T21:06:50.143Z,95215.68
2018-01-23T21:09:18.486Z,95213.23
2018-01-23T21:11:46.824Z,95216.16
2018-01-23T21:14:15.200Z,95217.41
2018-01-23T21:16:43.570Z,95213.43
2018-01-23T21:19:11.954Z,95217.23
2018-01-23T21:21:40.302Z,95213.81
2018-01-23T21:24:08.692Z,95214.33
2018-01-23T21:26:37.176Z,95226.48
2018-01-23T21:29:05.661Z,95224.77
2018-01-23T21:31:34.006Z,95229.61
2018-01-23T21:34:02.388Z,95226.80
2018-01-23T21:36:30.737Z,95233.62
2018-01-23T21:38:59.089Z,95241.08
2018-01-23T21:41:27.447Z,95237.37
2018-01-23T21:43:55.791Z,95244.86
2018-01-23T21:46:24.162Z,95234.94
2018-01-23T21:48:52.540Z,95239.90
2018-01-23T21:51:20.892Z,95239.12
2018-01-23T21:53:49.270Z,95239.13
2018-01-23T21:56:17.619Z,95231.59
2018-01-23T21:58:46.008Z,95234.59
2018-01-23T22:01:14.375Z,95228.72
2018-01-23T22:03:42.723Z,95218.36
2018-01-23T22:06:11.076Z,95224.79
2018-01-23T22:08:43.285Z,95236.42
2018-01-23T22:11:11.678Z,95233.41
2018-01-23T22:13:40.068Z,95236.11
2018-01-23T22:16:08.540Z,95231.70
2018-01-23T22:18:36.890Z,95231.52
2018-01-23T22:21:05.232Z,95228.48
2018-01-23T22:23:33.610Z,95221.73
2018-01-23T22:26:01.954Z,95218.59
2018-01-23T22:28:30.303Z,95226.62
2018-01-23T22:30:58.693Z,95228.28
2018-01-23T22:33:27.170Z,95219.58
2018-01-23T22:35:55.507Z,95226.12
2018-01-23T22:38:23.854Z,95232.03
2018-01-23T22:40:52.203Z,95228.00
2018-01-23T22:43:20.543Z,95236.39
2018-01-23T22:45:48.918Z,95235.51
2018-01-23T22:48:17.266Z,95237.98
2018-01-23T22:50:45.609Z,95238.71
2018-01-23T22:53:13.968Z,95238.49
2018-01-23T22:55:42.307Z,95235.14
2018-01-23T22:58:10.656Z,95229.08
2018-01-23T23:00:38.994Z,95229.30
2018-01-23T23:03:07.346Z,95220.81
2018-01-23T23:05:35.722Z,95217.62
2018-01-23T23:08:04.065Z,95213.15
2018-01-23T23:10:32.454Z,95222.73
2018-01-23T23:13:00.810Z,95198.81
2018-01-23T23:15:29.155Z,95208.32
2018-01-23T23:17:57.509Z,95214.66
2018-01-23T23:20:25.902Z,95222.66
2018-01-23T23:22:54.271Z,95215.30
2018-01-23T23:25:22.627Z,95215.59
2018-01-23T23:27:51.035Z,95219.18
2018-01-23T23:30:19.409Z,95211.73
2018-01-23T23:32:47.791Z,95204.99
2018-01-23T23:35:16.163Z,95206.09
2018-01-23T23:37:44.539Z,95205.17
2018-01-23T23:40:12.916Z,95205.05
2018-01-23T23:42:41.281Z,95213.92
2018-01-23T23:45:09.653Z,95203.59
2018-01-23T23:47:37.994Z,95204.64
2018-01-23T23:50:06.342Z,95202.77
2018-01-23T23:52:34.689Z,95195.19
2018-01-23T23:55:03.063Z,95197.79
2018-01-23T23:57:31.398Z,95199.86
2018-01-23T23:59:59.741Z,95199.41
